createdAt,value
2022-12-12T00:01:49.801Z,100.00
2022-12-12T00:04:16.759Z,100.00
2022-12-12T00:06:43.355Z,100.00
2022-12-12T00:09:09.933Z,100.00
2022-12-12T00:11:36.883Z,100.00
2022-12-12T00:14:03.696Z,100.00
2022-12-12T00:16:30.746Z,100.00
2022-12-12T00:18:57.399Z,100.00
2022-12-12T00:21:27.163Z,100.00
2022-12-12T00:23:54.580Z,100.00
2022-12-12T00:26:26.702Z,100.00
2022-12-12T00:28:53.390Z,100.00
2022-12-12T00:31:20.345Z,100.00
2022-12-12T00:33:47.693Z,100.00
2022-12-12T00:36:14.764Z,100.00
2022-12-12T00:38:41.364Z,100.00
2022-12-12T00:41:08.230Z,100.00
2022-12-12T00:43:34.905Z,100.00
2022-12-12T00:46:02.714Z,100.00
2022-12-12T00:48:29.396Z,100.00
2022-12-12T00:50:56.736Z,100.00
2022-12-12T00:53:23.622Z,100.00
2022-12-12T00:55:57.299Z,100.00
2022-12-12T00:58:25.166Z,100.00
2022-12-12T01:00:52.482Z,100.00
2022-12-12T01:03:19.817Z,100.00
2022-12-12T01:05:46.597Z,100.00
2022-12-12T01:08:13.214Z,100.00
2022-12-12T01:10:40.656Z,100.00
2022-12-12T01:13:07.298Z,100.00
2022-12-12T01:15:33.872Z,100.00
2022-12-12T01:18:00.466Z,100.00
2022-12-12T01:20:28.390Z,100.00
2022-12-12T01:22:55.060Z,100.00
2022-12-12T01:25:21.771Z,100.00
2022-12-12T01:27:48.638Z,100.00
2022-12-12T01:30:17.112Z,100.00
2022-12-12T01:32:43.906Z,100.00
2022-12-12T01:35:11.441Z,100.00
2022-12-12T01:37:40.409Z,100.00
2022-12-12T01:40:14.523Z,100.00
2022-12-12T01:42:41.595Z,100.00
2022-12-12T01:45:28.838Z,100.00
2022-12-12T01:47:57.303Z,100.00
2022-12-12T01:50:27.083Z,100.00
2022-12-12T01:52:53.678Z,100.00
2022-12-12T01:55:23.035Z,100.00
2022-12-12T01:57:53.349Z,100.00
2022-12-12T02:00:20.631Z,100.00
2022-12-12T02:02:48.307Z,100.00
2022-12-12T02:05:24.470Z,100.00
2022-12-12T02:07:51.604Z,100.00
2022-12-12T02:10:18.350Z,100.00
2022-12-12T02:12:45.181Z,100.00
2022-12-12T02:15:12.988Z,100.00
2022-12-12T02:18:17.881Z,100.00
2022-12-12T02:20:47.171Z,100.00
2022-12-12T02:23:38.587Z,100.00
2022-12-12T02:26:30.408Z,100.00
2022-12-12T02:29:06.031Z,100.00
2022-12-12T02:31:57.312Z,100.00
2022-12-12T02:34:50.398Z,100.00
2022-12-12T02:37:30.370Z,100.00
2022-12-12T02:40:21.768Z,100.00
2022-12-12T02:42:48.364Z,100.00
2022-12-12T02:45:48.773Z,100.00
2022-12-12T02:48:25.263Z,100.00
2022-12-12T02:50:54.828Z,100.00
2022-12-12T02:53:23.477Z,100.00
2022-12-12T02:56:04.715Z,100.00
2022-12-12T02:58:32.903Z,100.00
2022-12-12T03:01:31.905Z,100.00
2022-12-12T03:04:10.957Z,100.00
2022-12-12T03:07:03.343Z,100.00
2022-12-12T03:09:55.944Z,100.00
2022-12-12T03:12:34.381Z,100.00
2022-12-12T03:15:26.335Z,100.00
2022-12-12T03:18:05.043Z,98.85
2022-12-12T03:21:05.138Z,99.66
2022-12-12T03:23:37.918Z,98.25
2022-12-12T03:26:24.838Z,99.79
2022-12-12T03:28:58.938Z,98.81
2022-12-12T03:31:30.585Z,98.72
2022-12-12T03:34:11.859Z,97.83
2022-12-12T03:36:49.386Z,97.34
2022-12-12T03:39:24.221Z,94.12
2022-12-12T03:42:02.948Z,94.84
2022-12-12T03:44:41.108Z,93.88
2022-12-12T03:47:18.499Z,96.08
2022-12-12T03:49:59.053Z,94.20
2022-12-12T03:52:43.789Z,93.39
2022-12-12T03:55:33.529Z,91.66
2022-12-12T03:58:05.701Z,93.94
2022-12-12T04:00:34.776Z,91.45
2022-12-12T04:03:25.138Z,91.61
2022-12-12T04:05:58.028Z,90.90
2022-12-12T04:08:25.061Z,88.67
2022-12-12T04:11:00.009Z,85.81
2022-12-12T04:13:37.847Z,87.61
2022-12-12T04:16:14.299Z,86.59
2022-12-12T04:18:53.746Z,89.91
2022-12-12T04:21:29.478Z,88.69
2022-12-12T04:24:07.771Z,85.96
2022-12-12T04:26:38.573Z,86.37
2022-12-12T04:29:29.455Z,85.94
2022-12-12T04:32:21.827Z,84.92
2022-12-12T04:34:54.332Z,85.89
2022-12-12T04:37:26.926Z,86.02
2022-12-12T04:39:58.335Z,87.59
2022-12-12T04:42:29.458Z,84.96
2022-12-12T04:45:07.820Z,84.28
2022-12-12T04:47:37.503Z,83.92
2022-12-12T04:50:07.943Z,84.03
2022-12-12T04:52:36.147Z,84.06
2022-12-12T04:55:29.874Z,83.17
2022-12-12T04:57:57.029Z,82.56
2022-12-12T05:00:25.311Z,83.55
2022-12-12T05:02:57.838Z,84.76
2022-12-12T05:06:04.597Z,85.38
2022-12-12T05:08:47.382Z,82.39
2022-12-12T05:11:15.582Z,82.15
2022-12-12T05:13:43.100Z,82.34
2022-12-12T05:16:28.416Z,82.32
2022-12-12T05:18:55.111Z,80.49
2022-12-12T05:21:21.820Z,78.15
2022-12-12T05:23:48.399Z,78.86
2022-12-12T05:26:27.426Z,81.18
2022-12-12T05:28:54.636Z,79.90
2022-12-12T05:31:22.067Z,82.69
2022-12-12T05:33:48.786Z,80.33
2022-12-12T05:36:16.097Z,81.51
2022-12-12T05:38:43.245Z,80.14
2022-12-12T05:41:10.337Z,79.35
2022-12-12T05:43:37.670Z,81.76
2022-12-12T05:46:05.118Z,81.43
2022-12-12T05:48:31.895Z,81.94
2022-12-12T05:51:01.028Z,81.38
2022-12-12T05:53:27.908Z,82.55
2022-12-12T05:55:54.537Z,81.26
2022-12-12T05:58:21.132Z,82.56
2022-12-12T06:00:49.256Z,81.43
2022-12-12T06:03:16.755Z,83.12
2022-12-12T06:05:43.459Z,82.38
2022-12-12T06:08:10.195Z,82.85
2022-12-12T06:10:36.825Z,81.79
2022-12-12T06:13:03.638Z,84.13
2022-12-12T06:15:30.264Z,84.35
2022-12-12T06:17:56.928Z,82.14
2022-12-12T06:20:23.646Z,81.21
2022-12-12T06:22:53.712Z,82.38
2022-12-12T06:25:20.918Z,83.50
2022-12-12T06:27:47.637Z,80.78
2022-12-12T06:30:14.598Z,83.26
2022-12-12T06:32:41.285Z,83.05
2022-12-12T06:35:08.332Z,81.82
2022-12-12T06:37:35.149Z,80.53
2022-12-12T06:40:01.763Z,80.74
2022-12-12T06:42:28.360Z,82.56
2022-12-12T06:44:54.946Z,83.54
2022-12-12T06:47:21.546Z,83.71
2022-12-12T06:49:48.273Z,82.14
2022-12-12T06:52:14.878Z,82.01
2022-12-12T06:54:41.463Z,81.36
2022-12-12T06:57:08.187Z,82.04
2022-12-12T06:59:34.818Z,80.38
2022-12-12T07:02:01.482Z,81.67
2022-12-12T07:04:28.120Z,80.44
2022-12-12T07:06:54.784Z,81.35
2022-12-12T07:09:21.483Z,82.71
2022-12-12T07:11:48.071Z,82.09
2022-12-12T07:14:14.662Z,82.17
2022-12-12T07:16:41.231Z,81.47
2022-12-12T07:19:07.819Z,82.31
2022-12-12T07:21:34.507Z,80.40
2022-12-12T07:24:01.142Z,81.80
2022-12-12T07:26:27.732Z,80.34
2022-12-12T07:28:54.322Z,78.66
2022-12-12T07:31:23.349Z,80.31
2022-12-12T07:33:50.027Z,81.16
2022-12-12T07:36:16.984Z,81.84
2022-12-12T07:38:44.546Z,81.23
2022-12-12T07:41:14.424Z,80.32
2022-12-12T07:43:44.175Z,80.94
2022-12-12T07:46:15.203Z,80.65
2022-12-12T07:48:42.070Z,79.96
2022-12-12T07:51:08.920Z,79.13
2022-12-12T07:53:35.625Z,80.84
2022-12-12T07:56:05.443Z,79.89
2022-12-12T07:58:32.195Z,80.19
2022-12-12T08:00:58.839Z,80.31
2022-12-12T08:03:25.444Z,79.07
2022-12-12T08:05:52.033Z,79.07
2022-12-12T08:08:18.658Z,76.82
2022-12-12T08:10:45.269Z,77.92
2022-12-12T08:13:11.855Z,78.44
2022-12-12T08:15:38.554Z,77.96
2022-12-12T08:18:05.199Z,79.37
2022-12-12T08:20:31.785Z,78.69
2022-12-12T08:22:59.058Z,75.59
2022-12-12T08:25:25.642Z,76.62
2022-12-12T08:27:52.223Z,75.25
2022-12-12T08:30:18.965Z,74.89
2022-12-12T08:32:45.567Z,75.69
2022-12-12T08:35:12.379Z,75.35
2022-12-12T08:37:39.160Z,73.34
2022-12-12T08:40:06.230Z,72.87
2022-12-12T08:42:32.786Z,73.73
2022-12-12T08:44:59.359Z,73.36
2022-12-12T08:47:25.980Z,73.88
2022-12-12T08:49:52.643Z,73.24
2022-12-12T08:52:19.230Z,73.14
2022-12-12T08:54:45.929Z,73.41
2022-12-12T08:57:12.513Z,71.77
2022-12-12T08:59:39.102Z,73.63
2022-12-12T09:02:06.022Z,72.49
2022-12-12T09:04:34.465Z,72.72
2022-12-12T09:07:06.618Z,71.99
2022-12-12T09:09:34.790Z,70.15
2022-12-12T09:12:01.435Z,71.17
2022-12-12T09:14:28.032Z,69.66
2022-12-12T09:16:54.638Z,70.91
2022-12-12T09:19:21.300Z,68.12
2022-12-12T09:21:47.946Z,68.38
2022-12-12T09:24:14.537Z,68.79
2022-12-12T09:26:41.190Z,69.00
2022-12-12T09:29:07.774Z,68.58
2022-12-12T09:31:34.432Z,68.25
2022-12-12T09:34:01.077Z,68.33
2022-12-12T09:36:27.662Z,70.01
2022-12-12T09:38:54.251Z,69.82
2022-12-12T09:41:24.692Z,70.96
2022-12-12T09:44:01.153Z,71.52
2022-12-12T09:46:46.519Z,70.01
2022-12-12T09:49:15.210Z,69.95
2022-12-12T09:51:48.640Z,70.21
2022-12-12T09:54:19.151Z,69.78
2022-12-12T09:57:10.656Z,70.74
2022-12-12T10:00:08.809Z,69.80
2022-12-12T10:03:02.883Z,71.51
2022-12-12T10:05:42.665Z,70.49
2022-12-12T10:08:54.677Z,70.13
2022-12-12T10:11:28.736Z,69.80
2022-12-12T10:14:00.374Z,70.11
2022-12-12T10:16:30.767Z,69.04
2022-12-12T10:19:07.912Z,68.78
2022-12-12T10:21:37.967Z,69.07
2022-12-12T10:24:16.312Z,68.34
2022-12-12T10:26:43.049Z,68.69
2022-12-12T10:29:21.301Z,66.58
2022-12-12T10:32:12.200Z,67.08
2022-12-12T10:34:43.167Z,67.65
2022-12-12T10:37:36.913Z,66.78
2022-12-12T10:40:12.622Z,68.40
2022-12-12T10:43:03.668Z,68.12
2022-12-12T10:46:08.774Z,69.72
2022-12-12T10:48:35.551Z,69.14
2022-12-12T10:51:09.858Z,68.05
2022-12-12T10:53:36.673Z,66.88
2022-12-12T10:56:03.224Z,68.28
2022-12-12T10:58:38.459Z,68.26
2022-12-12T11:01:13.261Z,68.20
2022-12-12T11:03:45.190Z,68.38
2022-12-12T11:06:17.506Z,66.87
2022-12-12T11:09:00.737Z,68.92
2022-12-12T11:11:28.608Z,68.74
2022-12-12T11:14:00.664Z,69.44
2022-12-12T11:16:41.061Z,67.87
2022-12-12T11:19:20.725Z,67.13
2022-12-12T11:21:48.421Z,66.66
2022-12-12T11:24:19.777Z,65.32
2022-12-12T11:26:56.538Z,65.61
2022-12-12T11:29:38.340Z,66.08
2022-12-12T11:32:05.620Z,64.12
2022-12-12T11:34:37.899Z,66.78
2022-12-12T11:37:04.538Z,68.70
2022-12-12T11:39:39.083Z,69.47
2022-12-12T11:42:17.332Z,70.08
2022-12-12T11:44:45.093Z,71.71
2022-12-12T11:47:18.941Z,72.16
2022-12-12T11:49:58.083Z,74.27
2022-12-12T11:52:30.934Z,73.61
2022-12-12T11:54:59.248Z,73.96
2022-12-12T11:57:43.750Z,73.17
2022-12-12T12:00:22.920Z,72.99
2022-12-12T12:03:12.921Z,72.34
2022-12-12T12:05:57.551Z,71.70
2022-12-12T12:08:54.794Z,72.28
2022-12-12T12:11:21.331Z,71.33
2022-12-12T12:14:13.468Z,73.26
2022-12-12T12:16:46.202Z,76.81
2022-12-12T12:19:31.359Z,80.02
2022-12-12T12:22:16.346Z,77.50
2022-12-12T12:25:00.903Z,74.22
2022-12-12T12:27:41.786Z,75.05
2022-12-12T12:30:24.059Z,73.02
2022-12-12T12:33:15.228Z,71.95
2022-12-12T12:35:56.952Z,72.25
2022-12-12T12:38:23.472Z,70.39
2022-12-12T12:41:17.796Z,73.37
2022-12-12T12:44:04.622Z,73.56
2022-12-12T12:46:51.450Z,73.56
2022-12-12T12:49:51.728Z,72.31
2022-12-12T12:52:25.108Z,73.05
2022-12-12T12:54:55.357Z,71.65
2022-12-12T12:57:33.089Z,72.04
2022-12-12T13:00:06.738Z,73.49
2022-12-12T13:02:52.334Z,71.80
2022-12-12T13:05:26.476Z,73.82
2022-12-12T13:08:26.634Z,74.33
2022-12-12T13:11:00.946Z,74.89
2022-12-12T13:13:31.115Z,76.00
2022-12-12T13:16:06.501Z,77.07
2022-12-12T13:18:45.146Z,77.07
2022-12-12T13:21:21.371Z,78.24
2022-12-12T13:23:59.081Z,79.10
2022-12-12T13:26:47.281Z,80.32
2022-12-12T13:29:32.120Z,81.78
2022-12-12T13:31:58.677Z,82.29
2022-12-12T13:34:28.637Z,82.33
2022-12-12T13:36:57.998Z,82.34
2022-12-12T13:39:38.394Z,83.35
2022-12-12T13:42:07.655Z,83.52
2022-12-12T13:44:44.478Z,83.74
2022-12-12T13:47:23.198Z,81.51
2022-12-12T13:50:22.870Z,81.68
2022-12-12T13:53:07.785Z,81.59
2022-12-12T13:55:35.639Z,77.08
2022-12-12T13:58:02.176Z,79.06
2022-12-12T14:00:30.605Z,78.87
2022-12-12T14:03:24.687Z,79.18
2022-12-12T14:05:55.564Z,79.11
2022-12-12T14:08:30.510Z,78.07
2022-12-12T14:11:07.545Z,78.04
2022-12-12T14:13:39.224Z,77.99
2022-12-12T14:16:18.771Z,78.14
2022-12-12T14:18:51.356Z,78.10
2022-12-12T14:21:20.402Z,76.66
2022-12-12T14:23:53.087Z,75.23
2022-12-12T14:26:28.692Z,77.14
2022-12-12T14:29:16.984Z,77.25
2022-12-12T14:31:55.918Z,76.28
2022-12-12T14:34:22.444Z,76.98
2022-12-12T14:37:36.517Z,77.89
2022-12-12T14:40:23.027Z,76.47
2022-12-12T14:43:19.208Z,77.20
2022-12-12T14:46:04.234Z,76.89
2022-12-12T14:48:33.051Z,76.27
2022-12-12T14:51:12.354Z,77.13
2022-12-12T14:53:38.913Z,77.70
2022-12-12T14:56:21.040Z,76.09
2022-12-12T14:59:04.831Z,77.62
2022-12-12T15:01:35.763Z,77.50
2022-12-12T15:04:11.539Z,75.95
2022-12-12T15:06:43.522Z,78.19
2022-12-12T15:09:30.329Z,77.75
2022-12-12T15:12:14.139Z,77.20
2022-12-12T15:14:46.550Z,77.98
2022-12-12T15:17:19.687Z,78.85
2022-12-12T15:19:52.310Z,77.61
2022-12-12T15:22:32.021Z,78.56
2022-12-12T15:25:13.390Z,78.92
2022-12-12T15:27:46.916Z,80.50
2022-12-12T15:30:37.549Z,80.34
2022-12-12T15:33:08.019Z,80.01
2022-12-12T15:35:34.859Z,80.06
2022-12-12T15:38:05.257Z,78.58
2022-12-12T15:40:33.793Z,79.04
2022-12-12T15:43:07.496Z,79.88
2022-12-12T15:45:37.970Z,78.66
2022-12-12T15:48:05.977Z,80.51
2022-12-12T15:50:41.601Z,79.79
2022-12-12T15:53:26.626Z,81.37
2022-12-12T15:56:15.012Z,82.06
2022-12-12T15:58:48.152Z,81.95
2022-12-12T16:01:20.097Z,82.60
2022-12-12T16:04:10.340Z,83.18
2022-12-12T16:06:43.662Z,82.58
2022-12-12T16:09:10.205Z,83.44
2022-12-12T16:11:40.731Z,83.71
2022-12-12T16:14:32.546Z,82.99
2022-12-12T16:17:20.779Z,84.04
2022-12-12T16:20:11.758Z,83.96
2022-12-12T16:22:44.607Z,83.81
2022-12-12T16:25:17.217Z,83.54
2022-12-12T16:27:45.053Z,83.50
2022-12-12T16:30:14.323Z,83.68
2022-12-12T16:32:41.419Z,83.19
2022-12-12T16:35:09.881Z,81.60
2022-12-12T16:37:36.452Z,82.21
2022-12-12T16:40:03.202Z,82.77
2022-12-12T16:42:29.914Z,81.99
2022-12-12T16:44:56.540Z,82.69
2022-12-12T16:47:24.605Z,82.54
2022-12-12T16:49:52.086Z,80.28
2022-12-12T16:52:20.352Z,80.76
2022-12-12T16:54:53.068Z,79.64
2022-12-12T16:57:22.600Z,79.50
2022-12-12T16:59:49.223Z,79.49
2022-12-12T17:02:24.555Z,79.38
2022-12-12T17:04:52.088Z,78.37
2022-12-12T17:07:18.849Z,78.71
2022-12-12T17:09:45.455Z,78.47
2022-12-12T17:12:12.587Z,77.49
2022-12-12T17:14:39.190Z,78.59
2022-12-12T17:17:05.928Z,76.83
2022-12-12T17:19:32.996Z,76.76
2022-12-12T17:21:59.592Z,78.25
2022-12-12T17:24:26.317Z,76.98
2022-12-12T17:26:52.931Z,77.77
2022-12-12T17:29:19.656Z,79.24
2022-12-12T17:31:46.537Z,77.95
2022-12-12T17:34:13.142Z,78.36
2022-12-12T17:36:39.786Z,78.34
2022-12-12T17:39:06.382Z,78.60
2022-12-12T17:41:34.170Z,78.18
2022-12-12T17:44:00.743Z,78.91
2022-12-12T17:46:27.391Z,77.59
2022-12-12T17:48:54.025Z,79.22
2022-12-12T17:51:22.066Z,76.55
2022-12-12T17:53:48.735Z,77.46
2022-12-12T17:56:17.800Z,78.26
2022-12-12T17:58:46.581Z,79.08
2022-12-12T18:01:19.456Z,77.62
2022-12-12T18:03:47.177Z,78.55
2022-12-12T18:06:14.496Z,76.37
2022-12-12T18:08:41.606Z,77.86
2022-12-12T18:11:14.311Z,79.66
2022-12-12T18:13:42.461Z,79.51
2022-12-12T18:16:11.950Z,79.91
2022-12-12T18:18:38.779Z,82.18
2022-12-12T18:21:08.703Z,81.02
2022-12-12T18:23:35.925Z,82.72
2022-12-12T18:26:05.210Z,83.02
2022-12-12T18:28:32.143Z,83.01
2022-12-12T18:30:59.045Z,83.16
2022-12-12T18:33:25.639Z,83.01
2022-12-12T18:36:00.199Z,82.52
2022-12-12T18:38:26.836Z,82.83
2022-12-12T18:40:53.435Z,83.19
2022-12-12T18:43:20.028Z,83.01
2022-12-12T18:45:46.808Z,81.72
2022-12-12T18:48:13.415Z,81.21
2022-12-12T18:50:40.030Z,83.44
2022-12-12T18:53:06.657Z,84.30
2022-12-12T18:55:33.251Z,84.34
2022-12-12T18:58:00.126Z,85.12
2022-12-12T19:00:26.924Z,85.17
2022-12-12T19:02:53.535Z,85.71
2022-12-12T19:05:20.201Z,86.82
2022-12-12T19:07:47.040Z,86.15
2022-12-12T19:10:13.877Z,86.00
2022-12-12T19:12:40.652Z,84.40
2022-12-12T19:15:16.722Z,85.05
2022-12-12T19:17:44.209Z,84.58
2022-12-12T19:20:11.248Z,85.56
2022-12-12T19:22:46.601Z,83.46
2022-12-12T19:25:15.048Z,85.25
2022-12-12T19:27:41.666Z,85.73
2022-12-12T19:30:09.414Z,86.45
2022-12-12T19:32:36.011Z,86.75
2022-12-12T19:35:02.638Z,87.13
2022-12-12T19:37:29.326Z,86.89
2022-12-12T19:39:56.048Z,85.94
2022-12-12T19:42:23.025Z,85.62
2022-12-12T19:44:49.626Z,85.85
2022-12-12T19:47:16.250Z,86.86
2022-12-12T19:49:42.896Z,86.18
2022-12-12T19:52:14.063Z,86.42
2022-12-12T19:54:41.189Z,86.15
2022-12-12T19:57:07.821Z,86.62
2022-12-12T19:59:34.399Z,86.01
2022-12-12T20:02:01.013Z,86.36
2022-12-12T20:04:27.661Z,84.69
2022-12-12T20:06:54.247Z,86.43
2022-12-12T20:09:24.529Z,85.51
2022-12-12T20:11:51.226Z,85.87
2022-12-12T20:14:20.792Z,85.19
2022-12-12T20:16:48.139Z,85.99
2022-12-12T20:19:15.708Z,86.05
2022-12-12T20:22:03.343Z,87.01
2022-12-12T20:24:32.364Z,85.82
2022-12-12T20:26:59.578Z,86.25
2022-12-12T20:29:27.249Z,86.99
2022-12-12T20:31:54.002Z,85.41
2022-12-12T20:34:21.396Z,84.30
2022-12-12T20:36:48.000Z,85.01
2022-12-12T20:39:17.552Z,86.51
2022-12-12T20:41:44.821Z,86.85
2022-12-12T20:44:12.759Z,87.85
2022-12-12T20:46:42.003Z,87.24
2022-12-12T20:49:10.536Z,87.09
2022-12-12T20:54:25.025Z,87.50
2022-12-12T20:56:52.263Z,85.54
2022-12-12T20:59:18.843Z,85.83
2022-12-12T21:01:45.592Z,86.41
2022-12-12T21:04:12.227Z,86.53
2022-12-12T21:06:41.243Z,86.69
2022-12-12T21:09:09.923Z,84.83
2022-12-12T21:11:37.968Z,86.29
2022-12-12T21:14:05.060Z,85.82
2022-12-12T21:16:34.662Z,87.55
2022-12-12T21:19:06.173Z,87.89
2022-12-12T21:21:32.861Z,87.49
2022-12-12T21:24:00.218Z,88.53
2022-12-12T21:26:30.129Z,86.67
2022-12-12T21:28:58.122Z,87.62
2022-12-12T21:31:27.377Z,88.64
2022-12-12T21:33:54.688Z,88.96
2022-12-12T21:36:23.384Z,88.32
2022-12-12T21:38:51.999Z,89.26
2022-12-12T21:41:20.960Z,87.37
2022-12-12T21:43:48.320Z,88.58
2022-12-12T21:46:17.588Z,87.16
2022-12-12T21:48:44.218Z,88.48
2022-12-12T21:51:16.179Z,88.35
2022-12-12T21:53:43.451Z,88.43
2022-12-12T21:56:13.580Z,89.71
2022-12-12T21:58:41.603Z,90.13
2022-12-12T22:01:11.822Z,90.68
2022-12-12T22:03:38.694Z,90.71
2022-12-12T22:06:13.255Z,91.43
2022-12-12T22:08:41.203Z,92.09
2022-12-12T22:11:09.382Z,90.02
2022-12-12T22:13:40.080Z,90.38
2022-12-12T22:16:10.308Z,90.28
2022-12-12T22:18:37.083Z,90.63
2022-12-12T22:21:12.697Z,90.97
2022-12-12T22:23:39.524Z,91.07
2022-12-12T22:26:17.088Z,91.21
2022-12-12T22:28:43.668Z,91.70
2022-12-12T22:31:11.024Z,92.22
2022-12-12T22:33:37.714Z,92.41
2022-12-12T22:36:09.097Z,92.25
2022-12-12T22:38:38.398Z,92.63
2022-12-12T22:41:06.695Z,91.24
2022-12-12T22:43:34.658Z,91.19
2022-12-12T22:46:07.115Z,91.66
2022-12-12T22:48:34.800Z,93.83
2022-12-12T22:51:25.495Z,93.41
2022-12-12T22:53:52.118Z,93.64
2022-12-12T22:56:18.751Z,94.67
2022-12-12T22:58:45.321Z,94.22
2022-12-12T23:01:18.953Z,93.38
2022-12-12T23:03:46.698Z,93.59
2022-12-12T23:06:19.083Z,92.98
2022-12-12T23:08:54.120Z,93.11
2022-12-12T23:11:22.082Z,94.79
2022-12-12T23:13:48.703Z,95.47
2022-12-12T23:16:17.998Z,95.41
2022-12-12T23:18:46.170Z,96.38
2022-12-12T23:21:17.208Z,96.86
2022-12-12T23:23:44.929Z,96.62
2022-12-12T23:26:19.804Z,96.81
2022-12-12T23:28:47.640Z,96.51
2022-12-12T23:31:17.399Z,94.69
2022-12-12T23:33:45.294Z,96.52
2022-12-12T23:36:14.625Z,97.01
2022-12-12T23:38:41.930Z,94.00
2022-12-12T23:41:14.237Z,94.85
2022-12-12T23:43:41.501Z,96.66
2022-12-12T23:46:11.567Z,96.97
2022-12-12T23:48:38.246Z,97.64
2022-12-12T23:51:04.971Z,97.20
2022-12-12T23:53:32.459Z,96.88
2022-12-12T23:56:04.047Z,96.06
2022-12-12T23:58:30.753Z,96.52
